首页
METAR-TAF:

METAR-TAF

机场 :

埃尔迈拉 / 康宁, 紐約州, 美国

纬度: 42-09-23N, 经度: 076-54-10W, 海拔: 291米

当前天气观测

该预报发布于41分钟前的06:53 UTC
静风
温度 19°C
湿度 88%
气压 1011 hPa
能見度: 16.1公里
散云层高于1700英尺
阴天层高于4000英尺

METAR: KELM 230653Z AUTO 00000KT 10SM SCT017 OVC040 19/17 A2986 RMK AO2 SLP107 T01890172

时间: 03:34 (07:34 UTC)

预报

该预报发布于1小时和54分钟前的05:40 UTC
预报有效从23日的 06点(UTC)到 24日的 06点(UTC)
风速3节,风向多变
能見度: 10公里
少量云层高于700英尺
阴天层高于1400英尺
短暂存在
从 23日的 07点(UTC)到 23日的 11点(UTC)
阴天层高于700英尺
从 23日的 1200点(UTC)
风速5节,风向北转西北
能見度: 10公里
少量云层高于1500英尺
多云层高于3000英尺
从 23日的 1400点(UTC)
风速6节,风向
能見度: 10公里
多云层高于5000英尺
从 23日的 2300点(UTC)
风速3节,风向多变
能見度: 10公里
散云层高于5000英尺

TAF: KELM 230540Z 2306/2406 VRB03KT P6SM FEW007 OVC014 TEMPO 2307/2311 OVC007 FM231200 34005KT P6SM FEW015 BKN030 FM231400 35006KT P6SM BKN050 FM232300 VRB03KT P6SM SCT050

超过4000个机场的气象观测和天气预报(METAR&TAF报告)。

可查询的气象台以黄色和红色小点在地图上表示。

将鼠标移到小点上方,可查看气象台名称。

然后点击查看天气观测和预报。

如需切换地图:点击带黑十字的绿色按钮放大地图;点击带横线的绿色按钮缩小地图;或者点击绿色箭头查看邻近地区的地图。


METAR-TAF: